createdAt,value
2017-10-03T00:01:57.214Z,14.48
2017-10-03T00:06:53.204Z,14.26
2017-10-03T00:11:49.737Z,14.00
2017-10-03T00:16:46.244Z,13.85
2017-10-03T00:21:42.662Z,13.77
2017-10-03T00:26:38.055Z,13.86
2017-10-03T00:31:34.944Z,13.68
2017-10-03T00:36:31.035Z,13.68
2017-10-03T00:41:26.622Z,13.68
2017-10-03T00:46:25.045Z,13.67
2017-10-03T00:51:20.255Z,13.70
2017-10-03T00:56:16.072Z,13.57
2017-10-03T01:01:11.992Z,13.44
2017-10-03T01:06:08.760Z,13.27
2017-10-03T01:11:04.420Z,13.28
2017-10-03T01:16:00.518Z,13.28
2017-10-03T01:20:56.379Z,13.35
2017-10-03T01:25:52.215Z,13.47
2017-10-03T01:30:48.085Z,13.42
2017-10-03T01:35:43.882Z,13.44
2017-10-03T01:40:40.454Z,13.35
2017-10-03T01:45:36.046Z,13.33
2017-10-03T01:50:32.338Z,13.31
2017-10-03T01:55:28.122Z,13.35
2017-10-03T02:00:24.081Z,13.42
2017-10-03T02:05:21.748Z,13.30
2017-10-03T02:10:17.181Z,13.33
2017-10-03T02:15:13.068Z,13.20
2017-10-03T02:20:09.595Z,13.18
2017-10-03T02:25:05.090Z,13.09
2017-10-03T02:30:00.780Z,13.04
2017-10-03T02:34:56.466Z,13.01
2017-10-03T02:39:52.493Z,13.00
2017-10-03T02:44:48.189Z,12.98
2017-10-03T02:49:44.129Z,13.13
2017-10-03T02:54:40.155Z,13.03
2017-10-03T02:59:36.943Z,12.98
2017-10-03T03:04:33.079Z,12.90
2017-10-03T03:09:28.850Z,12.82
2017-10-03T03:14:24.731Z,12.82
2017-10-03T03:19:20.269Z,12.73
2017-10-03T03:24:16.784Z,12.75
2017-10-03T03:29:12.939Z,12.65
2017-10-03T03:34:08.558Z,12.79
2017-10-03T03:39:04.273Z,12.68
2017-10-03T03:44:00.917Z,12.80
2017-10-03T03:48:56.676Z,12.68
2017-10-03T03:53:52.882Z,12.61
2017-10-03T03:58:48.803Z,12.54
2017-10-03T04:03:44.492Z,12.53
2017-10-03T04:08:40.292Z,12.54
2017-10-03T04:13:36.407Z,12.42
2017-10-03T04:18:32.277Z,12.46
2017-10-03T04:23:28.317Z,12.55
2017-10-03T04:28:24.698Z,12.55
2017-10-03T04:33:20.765Z,12.72
2017-10-03T04:38:16.768Z,12.70
2017-10-03T04:43:13.829Z,12.80
2017-10-03T04:48:09.532Z,12.78
2017-10-03T04:53:05.033Z,12.78
2017-10-03T04:58:02.007Z,12.79
2017-10-03T05:02:57.853Z,12.97
2017-10-03T05:07:53.744Z,12.83
2017-10-03T05:12:49.604Z,12.86
2017-10-03T05:17:45.614Z,12.91
2017-10-03T05:22:41.420Z,12.82
2017-10-03T05:27:37.410Z,12.85
2017-10-03T05:32:33.294Z,12.98
2017-10-03T05:37:28.962Z,13.01
2017-10-03T05:42:26.052Z,12.98
2017-10-03T05:47:22.465Z,13.04
2017-10-03T05:52:18.137Z,13.00
2017-10-03T05:57:13.904Z,13.04
2017-10-03T06:02:09.863Z,13.15
2017-10-03T06:07:06.065Z,13.05
2017-10-03T06:12:01.902Z,12.98
2017-10-03T06:16:57.705Z,12.94
2017-10-03T06:21:53.486Z,12.90
2017-10-03T06:26:50.357Z,12.90
2017-10-03T06:31:45.786Z,12.93
2017-10-03T06:36:41.455Z,12.94
2017-10-03T06:41:37.388Z,13.05
2017-10-03T06:46:34.341Z,13.15
2017-10-03T06:51:29.900Z,13.20
2017-10-03T06:56:26.750Z,13.28
2017-10-03T07:01:22.144Z,13.52
2017-10-03T07:06:18.458Z,13.56
2017-10-03T07:11:15.976Z,13.92
2017-10-03T07:16:11.842Z,13.83
2017-10-03T07:21:07.851Z,14.00
2017-10-03T07:26:03.864Z,13.99
2017-10-03T07:31:00.061Z,14.18
2017-10-03T07:35:56.104Z,14.25
2017-10-03T07:40:53.081Z,14.25
2017-10-03T07:45:49.990Z,14.18
2017-10-03T07:50:45.494Z,14.17
2017-10-03T07:55:41.161Z,14.15
2017-10-03T08:00:38.258Z,14.00
2017-10-03T08:05:34.992Z,14.12
2017-10-03T08:10:30.571Z,14.30
2017-10-03T08:15:26.363Z,14.30
2017-10-03T08:20:22.223Z,14.37
2017-10-03T08:25:19.082Z,14.36
2017-10-03T08:30:15.500Z,14.37
2017-10-03T08:35:11.577Z,14.70
2017-10-03T08:40:07.328Z,14.68
2017-10-03T08:45:04.224Z,14.70
2017-10-03T08:50:00.077Z,14.69
2017-10-03T08:54:55.981Z,14.97
2017-10-03T08:59:52.342Z,15.22
2017-10-03T09:04:48.559Z,15.46
2017-10-03T09:09:44.398Z,15.42
2017-10-03T09:14:41.905Z,15.33
2017-10-03T09:19:39.157Z,15.29
2017-10-03T09:24:35.161Z,15.61
2017-10-03T09:29:31.595Z,15.79
2017-10-03T09:34:27.466Z,15.86
2017-10-03T09:39:23.337Z,16.04
2017-10-03T09:44:20.817Z,16.08
2017-10-03T09:49:16.271Z,15.94
2017-10-03T09:54:14.229Z,16.17
2017-10-03T09:59:10.482Z,16.16
2017-10-03T10:04:07.982Z,16.13
2017-10-03T10:09:03.542Z,16.33
2017-10-03T10:13:59.908Z,16.49
2017-10-03T10:18:56.121Z,16.38
2017-10-03T10:23:51.818Z,16.24
2017-10-03T10:28:47.574Z,16.26
2017-10-03T10:33:43.590Z,16.41
2017-10-03T10:38:39.920Z,16.39
2017-10-03T10:43:35.639Z,16.28
2017-10-03T10:48:31.242Z,16.32
2017-10-03T10:53:27.733Z,16.10
2017-10-03T10:58:24.891Z,17.01
2017-10-03T11:03:21.650Z,17.36
2017-10-03T11:08:18.510Z,17.87
2017-10-03T11:13:14.398Z,17.64
2017-10-03T11:18:12.124Z,18.10
2017-10-03T11:23:07.685Z,18.01
2017-10-03T11:28:03.413Z,17.63
2017-10-03T11:33:00.621Z,17.83
2017-10-03T11:37:55.994Z,18.05
2017-10-03T11:42:53.182Z,18.07
2017-10-03T11:47:48.318Z,18.31
2017-10-03T11:52:45.079Z,18.22
2017-10-03T11:57:40.801Z,18.13
2017-10-03T12:02:37.935Z,18.03
2017-10-03T12:07:33.773Z,17.78
2017-10-03T12:12:30.345Z,17.36
2017-10-03T12:17:25.622Z,17.05
2017-10-03T12:22:22.228Z,16.74
2017-10-03T12:27:17.460Z,16.66
2017-10-03T12:32:12.852Z,16.64
2017-10-03T12:37:09.987Z,16.74
2017-10-03T12:42:05.205Z,16.66
2017-10-03T12:47:00.833Z,16.65
2017-10-03T12:51:56.728Z,16.79
2017-10-03T12:56:53.960Z,16.91
2017-10-03T13:01:49.612Z,17.24
2017-10-03T13:06:47.108Z,17.19
2017-10-03T13:11:43.793Z,16.93
2017-10-03T13:16:39.209Z,16.81
2017-10-03T13:21:34.761Z,16.69
2017-10-03T13:26:30.763Z,16.87
2017-10-03T13:31:26.416Z,16.68
2017-10-03T13:36:22.038Z,16.47
2017-10-03T13:41:18.724Z,16.21
2017-10-03T13:46:14.130Z,15.84
2017-10-03T13:51:09.784Z,15.77
2017-10-03T13:56:05.876Z,15.58
2017-10-03T14:01:01.556Z,15.47
2017-10-03T14:05:57.180Z,15.44
2017-10-03T14:10:53.942Z,15.61
2017-10-03T14:15:50.116Z,15.64
2017-10-03T14:20:46.132Z,15.76
2017-10-03T14:25:43.054Z,15.86
2017-10-03T14:30:40.219Z,15.94
2017-10-03T14:35:35.944Z,15.84
2017-10-03T14:40:32.802Z,15.91
2017-10-03T14:45:28.525Z,15.86
2017-10-03T14:50:25.445Z,15.90
2017-10-03T14:55:22.279Z,15.97
2017-10-03T15:00:18.853Z,15.95
2017-10-03T15:05:14.368Z,16.00
2017-10-03T15:10:10.560Z,15.82
2017-10-03T15:15:06.208Z,15.80
2017-10-03T15:20:03.609Z,15.75
2017-10-03T15:24:58.864Z,15.61
2017-10-03T15:29:54.977Z,15.57
2017-10-03T15:34:50.985Z,15.55
2017-10-03T15:39:46.524Z,15.54
2017-10-03T15:44:42.653Z,15.40
2017-10-03T15:49:39.286Z,15.28
2017-10-03T15:54:34.739Z,15.19
2017-10-03T15:59:30.504Z,15.04
2017-10-03T16:04:27.516Z,15.07
2017-10-03T16:09:23.235Z,14.92
2017-10-03T16:14:19.066Z,15.02
2017-10-03T16:19:16.219Z,15.00
2017-10-03T16:24:11.993Z,14.92
2017-10-03T16:29:07.639Z,14.81
2017-10-03T16:34:03.433Z,14.86
2017-10-03T16:38:59.208Z,14.78
2017-10-03T16:43:54.917Z,14.55
2017-10-03T16:48:50.808Z,14.55
2017-10-03T16:53:46.418Z,14.50
2017-10-03T16:58:42.192Z,14.29
2017-10-03T17:03:38.337Z,14.36
2017-10-03T17:08:34.914Z,14.30
2017-10-03T17:13:30.622Z,14.29
2017-10-03T17:18:26.809Z,14.14
2017-10-03T17:23:23.115Z,14.04
2017-10-03T17:28:19.871Z,13.92
2017-10-03T17:33:15.260Z,13.77
2017-10-03T17:38:11.186Z,13.74
2017-10-03T17:43:07.019Z,13.72
2017-10-03T17:48:02.498Z,13.57
2017-10-03T17:52:59.504Z,13.50
2017-10-03T17:57:55.408Z,13.53
2017-10-03T18:02:51.369Z,13.42
2017-10-03T18:07:47.947Z,13.41
2017-10-03T18:12:44.887Z,13.38
2017-10-03T18:17:40.568Z,13.39
2017-10-03T18:22:36.705Z,13.44
2017-10-03T18:27:33.557Z,13.42
2017-10-03T18:32:29.236Z,13.38
2017-10-03T18:37:24.889Z,13.50
2017-10-03T18:42:22.828Z,13.42
2017-10-03T18:47:18.189Z,13.70
2017-10-03T18:52:14.096Z,13.72
2017-10-03T18:57:10.953Z,13.54
2017-10-03T19:02:07.300Z,13.67
2017-10-03T19:07:02.806Z,13.68
2017-10-03T19:11:58.685Z,13.42
2017-10-03T19:16:54.270Z,13.38
2017-10-03T19:21:51.450Z,13.20
2017-10-03T19:26:49.327Z,13.20
2017-10-03T19:31:45.646Z,13.35
2017-10-03T19:36:41.256Z,13.44
2017-10-03T19:41:37.141Z,13.30
2017-10-03T19:46:32.985Z,13.28
2017-10-03T19:51:28.479Z,13.15
2017-10-03T19:56:24.435Z,13.04
2017-10-03T20:01:21.299Z,12.93
2017-10-03T20:06:17.587Z,12.87
2017-10-03T20:11:14.235Z,12.82
2017-10-03T20:16:09.983Z,12.75
2017-10-03T20:21:06.824Z,12.54
2017-10-03T20:26:03.546Z,12.57
2017-10-03T20:31:00.063Z,12.49
2017-10-03T20:35:55.897Z,12.45
2017-10-03T20:40:51.574Z,12.43
2017-10-03T20:45:47.388Z,12.35
2017-10-03T20:50:43.089Z,12.32
2017-10-03T20:55:39.593Z,12.28
2017-10-03T21:00:36.676Z,12.29
2017-10-03T21:05:31.938Z,12.18
2017-10-03T21:10:28.859Z,12.31
2017-10-03T21:15:24.323Z,12.28
2017-10-03T21:20:20.631Z,12.18
2017-10-03T21:25:17.321Z,12.10
2017-10-03T21:30:12.855Z,12.06
2017-10-03T21:35:09.432Z,12.12
2017-10-03T21:40:05.013Z,12.03
2017-10-03T21:45:00.957Z,12.04
2017-10-03T21:49:56.779Z,11.97
2017-10-03T21:54:52.820Z,12.04
2017-10-03T21:59:48.783Z,12.06
2017-10-03T22:04:45.074Z,12.00
2017-10-03T22:09:40.718Z,11.99
2017-10-03T22:14:37.659Z,11.90
2017-10-03T22:19:33.117Z,12.03
2017-10-03T22:24:29.495Z,12.04
2017-10-03T22:29:25.543Z,12.10
2017-10-03T22:34:21.518Z,12.06
2017-10-03T22:39:17.406Z,12.17
2017-10-03T22:44:13.405Z,12.28
2017-10-03T22:49:10.296Z,12.31
2017-10-03T22:54:06.276Z,12.35
2017-10-03T22:59:03.062Z,12.43
2017-10-03T23:03:59.728Z,12.40
2017-10-03T23:08:55.166Z,12.45
2017-10-03T23:13:51.065Z,12.49
2017-10-03T23:18:47.228Z,12.46
2017-10-03T23:23:43.239Z,12.53
2017-10-03T23:28:39.013Z,12.55
2017-10-03T23:33:35.163Z,12.50
2017-10-03T23:38:31.165Z,12.42
2017-10-03T23:43:27.245Z,12.43
2017-10-03T23:48:23.066Z,12.53
2017-10-03T23:53:19.796Z,12.57
2017-10-03T23:58:16.954Z,12.54
